sensor_id;sensor_type;location;lat;lon;timestamp;pressure;altitude;pressure_sealevel;temperature;humidity
41596;BME280;27283;52.504;13.358;2023-05-23T00:01:21;100807.28;;;18.99;41.17
41596;BME280;27283;52.504;13.358;2023-05-23T00:03:53;100803.06;;;19.03;41.27
41596;BME280;27283;52.504;13.358;2023-05-23T00:06:27;100799.13;;;18.99;41.53
41596;BME280;27283;52.504;13.358;2023-05-23T00:09:00;100798.91;;;19.00;41.35
41596;BME280;27283;52.504;13.358;2023-05-23T00:11:37;100797.06;;;18.94;41.31
41596;BME280;27283;52.504;13.358;2023-05-23T00:14:14;100794.16;;;18.89;41.69
41596;BME280;27283;52.504;13.358;2023-05-23T00:16:48;100791.03;;;18.85;42.04
41596;BME280;27283;52.504;13.358;2023-05-23T00:19:22;100790.16;;;18.85;41.78
41596;BME280;27283;52.504;13.358;2023-05-23T00:21:55;100795.25;;;18.81;42.29
41596;BME280;27283;52.504;13.358;2023-05-23T00:24:30;100780.16;;;18.78;41.85
41596;BME280;27283;52.504;13.358;2023-05-23T00:27:06;100786.88;;;18.76;42.13
41596;BME280;27283;52.504;13.358;2023-05-23T00:29:40;100776.19;;;18.74;41.87
41596;BME280;27283;52.504;13.358;2023-05-23T00:32:13;100768.03;;;18.74;42.12
41596;BME280;27283;52.504;13.358;2023-05-23T00:34:46;100776.91;;;18.63;42.49
41596;BME280;27283;52.504;13.358;2023-05-23T00:37:23;100774.56;;;18.67;42.41
41596;BME280;27283;52.504;13.358;2023-05-23T00:39:57;100781.28;;;18.64;42.62
41596;BME280;27283;52.504;13.358;2023-05-23T00:42:33;100772.28;;;18.64;42.41
41596;BME280;27283;52.504;13.358;2023-05-23T00:45:18;100774.00;;;18.58;42.65
41596;BME280;27283;52.504;13.358;2023-05-23T00:47:55;100772.78;;;18.47;43.34
41596;BME280;27283;52.504;13.358;2023-05-23T00:50:29;100765.47;;;18.48;42.98
41596;BME280;27283;52.504;13.358;2023-05-23T00:53:03;100764.69;;;18.40;43.62
41596;BME280;27283;52.504;13.358;2023-05-23T00:55:37;100755.50;;;18.28;43.14
41596;BME280;27283;52.504;13.358;2023-05-23T00:58:14;100754.94;;;18.19;43.90
41596;BME280;27283;52.504;13.358;2023-05-23T01:00:46;100750.53;;;18.18;44.07
41596;BME280;27283;52.504;13.358;2023-05-23T01:03:23;100754.31;;;18.17;44.15
41596;BME280;27283;52.504;13.358;2023-05-23T01:05:58;100746.34;;;18.16;43.88
41596;BME280;27283;52.504;13.358;2023-05-23T01:08:32;100743.47;;;18.11;44.59
41596;BME280;27283;52.504;13.358;2023-05-23T01:11:22;100744.72;;;18.08;44.19
41596;BME280;27283;52.504;13.358;2023-05-23T01:14:08;100744.31;;;18.04;44.16
41596;BME280;27283;52.504;13.358;2023-05-23T01:16:47;100741.34;;;18.13;44.27
41596;BME280;27283;52.504;13.358;2023-05-23T01:19:39;100738.84;;;18.11;44.41
41596;BME280;27283;52.504;13.358;2023-05-23T01:22:25;100739.06;;;18.10;44.29
41596;BME280;27283;52.504;13.358;2023-05-23T01:25:16;100734.06;;;18.06;44.15
41596;BME280;27283;52.504;13.358;2023-05-23T01:28:02;100736.97;;;18.12;44.49
41596;BME280;27283;52.504;13.358;2023-05-23T01:30:39;100735.06;;;18.12;44.39
41596;BME280;27283;52.504;13.358;2023-05-23T01:33:15;100735.03;;;18.19;43.98
41596;BME280;27283;52.504;13.358;2023-05-23T01:35:50;100730.22;;;18.21;44.34
41596;BME280;27283;52.504;13.358;2023-05-23T01:38:22;100726.88;;;18.19;44.14
41596;BME280;27283;52.504;13.358;2023-05-23T01:40:57;100728.56;;;18.20;44.18
41596;BME280;27283;52.504;13.358;2023-05-23T01:43:35;100726.63;;;18.27;44.23
41596;BME280;27283;52.504;13.358;2023-05-23T01:46:09;100726.22;;;18.23;44.20
41596;BME280;27283;52.504;13.358;2023-05-23T01:48:44;100730.22;;;18.21;44.20
41596;BME280;27283;52.504;13.358;2023-05-23T01:51:21;100717.84;;;18.25;44.59
41596;BME280;27283;52.504;13.358;2023-05-23T01:53:59;100721.63;;;18.24;44.29
41596;BME280;27283;52.504;13.358;2023-05-23T01:56:40;100713.25;;;18.19;44.43
41596;BME280;27283;52.504;13.358;2023-05-23T01:59:18;100719.13;;;18.16;45.00
41596;BME280;27283;52.504;13.358;2023-05-23T02:01:51;100716.41;;;18.16;44.57
41596;BME280;27283;52.504;13.358;2023-05-23T02:04:27;100720.00;;;18.10;44.64
41596;BME280;27283;52.504;13.358;2023-05-23T02:07:02;100723.22;;;18.00;45.55
41596;BME280;27283;52.504;13.358;2023-05-23T02:09:47;100720.88;;;18.10;44.59
41596;BME280;27283;52.504;13.358;2023-05-23T02:12:22;100735.06;;;18.12;44.81
41596;BME280;27283;52.504;13.358;2023-05-23T02:14:59;100730.50;;;18.06;45.24
41596;BME280;27283;52.504;13.358;2023-05-23T02:17:35;100729.66;;;18.05;44.88
41596;BME280;27283;52.504;13.358;2023-05-23T02:20:10;100731.16;;;18.01;45.08
41596;BME280;27283;52.504;13.358;2023-05-23T02:22:47;100729.03;;;18.10;44.72
41596;BME280;27283;52.504;13.358;2023-05-23T02:25:19;100725.66;;;18.08;44.91
41596;BME280;27283;52.504;13.358;2023-05-23T02:27:52;100733.84;;;18.08;44.92
41596;BME280;27283;52.504;13.358;2023-05-23T02:30:31;100735.28;;;18.11;44.89
41596;BME280;27283;52.504;13.358;2023-05-23T02:33:05;100730.50;;;18.06;45.40
41596;BME280;27283;52.504;13.358;2023-05-23T02:35:39;100723.44;;;17.98;45.79
41596;BME280;27283;52.504;13.358;2023-05-23T02:38:13;100720.50;;;18.00;45.62
41596;BME280;27283;52.504;13.358;2023-05-23T02:40:50;100719.69;;;17.93;46.00
41596;BME280;27283;52.504;13.358;2023-05-23T02:43:28;100712.94;;;17.88;46.29
41596;BME280;27283;52.504;13.358;2023-05-23T02:46:04;100716.75;;;17.87;45.78
41596;BME280;27283;52.504;13.358;2023-05-23T02:48:37;100720.09;;;17.83;46.22
41596;BME280;27283;52.504;13.358;2023-05-23T02:51:10;100707.13;;;17.78;46.25
41596;BME280;27283;52.504;13.358;2023-05-23T02:53:47;100722.22;;;17.74;46.31
41596;BME280;27283;52.504;13.358;2023-05-23T02:56:21;100721.16;;;17.82;46.23
41596;BME280;27283;52.504;13.358;2023-05-23T02:58:55;100716.09;;;17.85;46.30
41596;BME280;27283;52.504;13.358;2023-05-23T03:01:31;100713.38;;;17.85;46.01
41596;BME280;27283;52.504;13.358;2023-05-23T03:04:06;100716.31;;;17.84;46.52
41596;BME280;27283;52.504;13.358;2023-05-23T03:06:39;100721.38;;;17.80;48.05
41596;BME280;27283;52.504;13.358;2023-05-23T03:09:14;100727.03;;;17.79;48.26
41596;BME280;27283;52.504;13.358;2023-05-23T03:11:48;100720.97;;;17.70;47.36
41596;BME280;27283;52.504;13.358;2023-05-23T03:14:22;100716.75;;;17.81;46.68
41596;BME280;27283;52.504;13.358;2023-05-23T03:16:58;100713.59;;;17.84;46.37
41596;BME280;27283;52.504;13.358;2023-05-23T03:19:34;100708.59;;;17.81;46.64
41596;BME280;27283;52.504;13.358;2023-05-23T03:22:07;100708.59;;;17.81;46.72
41596;BME280;27283;52.504;13.358;2023-05-23T03:24:41;100701.91;;;17.77;46.85
41596;BME280;27283;52.504;13.358;2023-05-23T03:27:15;100704.66;;;17.70;47.40
41596;BME280;27283;52.504;13.358;2023-05-23T03:29:48;100702.97;;;17.69;47.27
41596;BME280;27283;52.504;13.358;2023-05-23T03:36:03;100707.38;;;17.63;47.39
41596;BME280;27283;52.504;13.358;2023-05-23T03:38:36;100708.25;;;17.64;47.70
41596;BME280;27283;52.504;13.358;2023-05-23T03:41:09;100694.84;;;17.62;47.43
41596;BME280;27283;52.504;13.358;2023-05-23T03:43:43;100691.06;;;17.63;47.89
41596;BME280;27283;52.504;13.358;2023-05-23T03:46:16;100701.59;;;17.53;47.96
41596;BME280;27283;52.504;13.358;2023-05-23T03:48:51;100696.56;;;17.50;48.00
41596;BME280;27283;52.504;13.358;2023-05-23T03:51:28;100689.44;;;17.49;48.26
41596;BME280;27283;52.504;13.358;2023-05-23T03:54:04;100692.34;;;17.54;48.36
41596;BME280;27283;52.504;13.358;2023-05-23T03:56:37;100697.59;;;17.49;48.48
41596;BME280;27283;52.504;13.358;2023-05-23T03:59:11;100689.28;;;17.44;48.61
41596;BME280;27283;52.504;13.358;2023-05-23T04:01:44;100691.56;;;17.40;48.59
41596;BME280;27283;52.504;13.358;2023-05-23T04:04:18;100684.22;;;17.41;48.56
41596;BME280;27283;52.504;13.358;2023-05-23T04:06:56;100688.44;;;17.30;49.15
41596;BME280;27283;52.504;13.358;2023-05-23T04:09:33;100692.63;;;17.32;48.94
41596;BME280;27283;52.504;13.358;2023-05-23T04:12:08;100698.47;;;17.36;48.83
41596;BME280;27283;52.504;13.358;2023-05-23T04:14:43;100692.00;;;17.44;48.75
41596;BME280;27283;52.504;13.358;2023-05-23T04:17:18;100697.63;;;17.42;48.87
41596;BME280;27283;52.504;13.358;2023-05-23T04:20:07;100709.34;;;17.43;48.61
41596;BME280;27283;52.504;13.358;2023-05-23T04:22:46;100708.28;;;17.50;48.86
41596;BME280;27283;52.504;13.358;2023-05-23T04:25:25;100710.34;;;17.55;49.37
41596;BME280;27283;52.504;13.358;2023-05-23T04:27:58;100705.72;;;17.56;49.78
41596;BME280;27283;52.504;13.358;2023-05-23T04:30:33;100697.78;;;17.54;49.30
41596;BME280;27283;52.504;13.358;2023-05-23T04:33:07;100699.06;;;17.45;50.19
41596;BME280;27283;52.504;13.358;2023-05-23T04:35:49;100695.72;;;17.56;50.72
41596;BME280;27283;52.504;13.358;2023-05-23T04:38:26;100698.22;;;17.58;51.15
41596;BME280;27283;52.504;13.358;2023-05-23T04:41:01;100697.00;;;17.47;50.99
41596;BME280;27283;52.504;13.358;2023-05-23T04:43:39;100700.16;;;17.44;51.11
41596;BME280;27283;52.504;13.358;2023-05-23T04:46:15;100694.91;;;17.35;51.20
41596;BME280;27283;52.504;13.358;2023-05-23T04:48:49;100700.97;;;17.38;50.85
41596;BME280;27283;52.504;13.358;2023-05-23T04:51:24;100697.00;;;17.27;57.58
41596;BME280;27283;52.504;13.358;2023-05-23T04:54:04;100697.03;;;17.20;52.04
41596;BME280;27283;52.504;13.358;2023-05-23T04:56:39;100695.53;;;17.38;51.18
41596;BME280;27283;52.504;13.358;2023-05-23T04:59:13;100689.47;;;17.35;51.02
41596;BME280;27283;52.504;13.358;2023-05-23T05:01:48;100690.72;;;17.40;50.46
41596;BME280;27283;52.504;13.358;2023-05-23T05:04:21;100691.38;;;17.28;51.13
41596;BME280;27283;52.504;13.358;2023-05-23T05:06:55;100684.88;;;17.36;50.90
41596;BME280;27283;52.504;13.358;2023-05-23T05:09:32;100689.69;;;17.34;50.81
41596;BME280;27283;52.504;13.358;2023-05-23T05:12:10;100690.31;;;17.36;51.64
41596;BME280;27283;52.504;13.358;2023-05-23T05:14:44;100693.88;;;17.36;51.27
41596;BME280;27283;52.504;13.358;2023-05-23T05:17:24;100702.06;;;17.23;53.76
41596;BME280;27283;52.504;13.358;2023-05-23T05:20:04;100695.78;;;17.16;52.03
41596;BME280;27283;52.504;13.358;2023-05-23T05:22:41;100705.41;;;17.05;55.22
41596;BME280;27283;52.504;13.358;2023-05-23T05:25:21;100698.06;;;17.19;54.22
41596;BME280;27283;52.504;13.358;2023-05-23T05:27:57;100705.22;;;17.00;54.19
41596;BME280;27283;52.504;13.358;2023-05-23T05:30:34;100698.91;;;17.13;52.49
41596;BME280;27283;52.504;13.358;2023-05-23T05:33:12;100703.31;;;16.94;53.02
41596;BME280;27283;52.504;13.358;2023-05-23T05:35:48;100699.72;;;16.80;55.25
41596;BME280;27283;52.504;13.358;2023-05-23T05:38:23;100707.47;;;16.83;56.81
41596;BME280;27283;52.504;13.358;2023-05-23T05:44:19;100713.94;;;16.69;56.45
41596;BME280;27283;52.504;13.358;2023-05-23T05:46:54;100716.66;;;16.75;56.35
41596;BME280;27283;52.504;13.358;2023-05-23T05:49:30;100708.53;;;16.82;55.65
41596;BME280;27283;52.504;13.358;2023-05-23T05:52:10;100706.03;;;16.87;57.71
41596;BME280;27283;52.504;13.358;2023-05-23T05:54:49;100704.75;;;16.83;60.11
41596;BME280;27283;52.504;13.358;2023-05-23T05:57:24;100704.13;;;16.81;61.18
41596;BME280;27283;52.504;13.358;2023-05-23T06:00:02;100699.09;;;16.71;63.45
41596;BME280;27283;52.504;13.358;2023-05-23T06:02:42;100690.75;;;16.86;59.04
41596;BME280;27283;52.504;13.358;2023-05-23T06:05:18;100702.91;;;16.97;60.84
41596;BME280;27283;52.504;13.358;2023-05-23T06:07:52;100704.34;;;16.79;60.50
41596;BME280;27283;52.504;13.358;2023-05-23T06:10:37;100696.22;;;16.93;60.29
41596;BME280;27283;52.504;13.358;2023-05-23T06:13:16;100687.88;;;16.94;60.78
41596;BME280;27283;52.504;13.358;2023-05-23T06:16:18;100691.00;;;16.91;59.94
41596;BME280;27283;52.504;13.358;2023-05-23T06:19:03;100693.50;;;16.93;61.78
41596;BME280;27283;52.504;13.358;2023-05-23T06:21:54;100695.34;;;16.86;58.64
41596;BME280;27283;52.504;13.358;2023-05-23T06:24:31;100692.84;;;16.77;59.02
41596;BME280;27283;52.504;13.358;2023-05-23T06:27:26;100697.06;;;16.87;60.14
41596;BME280;27283;52.504;13.358;2023-05-23T06:30:05;100698.47;;;16.82;59.10
41596;BME280;27283;52.504;13.358;2023-05-23T06:32:47;100691.41;;;16.95;60.53
41596;BME280;27283;52.504;13.358;2023-05-23T06:35:37;100693.28;;;17.08;57.56
41596;BME280;27283;52.504;13.358;2023-05-23T06:38:12;100689.31;;;17.17;55.74
41596;BME280;27283;52.504;13.358;2023-05-23T06:40:47;100692.59;;;17.46;56.72
41596;BME280;27283;52.504;13.358;2023-05-23T06:43:24;100700.28;;;17.56;59.49
41596;BME280;27283;52.504;13.358;2023-05-23T06:46:12;100696.69;;;17.75;56.34
41596;BME280;27283;52.504;13.358;2023-05-23T06:48:49;100689.75;;;17.93;53.94
41596;BME280;27283;52.504;13.358;2023-05-23T06:51:42;100697.59;;;18.14;54.00
41596;BME280;27283;52.504;13.358;2023-05-23T06:54:16;100695.16;;;18.38;54.23
41596;BME280;27283;52.504;13.358;2023-05-23T06:56:52;100699.38;;;18.34;52.58
41596;BME280;27283;52.504;13.358;2023-05-23T06:59:27;100703.56;;;18.36;53.32
41596;BME280;27283;52.504;13.358;2023-05-23T07:01:59;100697.22;;;18.42;51.64
41596;BME280;27283;52.504;13.358;2023-05-23T07:04:53;100705.53;;;18.22;52.46
41596;BME280;27283;52.504;13.358;2023-05-23T07:07:26;100690.44;;;18.58;51.97
41596;BME280;27283;52.504;13.358;2023-05-23T07:10:00;100692.75;;;18.55;51.40
41596;BME280;27283;52.504;13.358;2023-05-23T07:12:33;100705.09;;;18.57;52.42
41596;BME280;27283;52.504;13.358;2023-05-23T07:15:11;100702.22;;;18.46;53.08
41596;BME280;27283;52.504;13.358;2023-05-23T07:18:11;100703.34;;;18.31;53.88
41596;BME280;27283;52.504;13.358;2023-05-23T07:24:51;100708.47;;;18.78;52.86
41596;BME280;27283;52.504;13.358;2023-05-23T07:27:26;100708.94;;;18.75;54.21
41596;BME280;27283;52.504;13.358;2023-05-23T07:30:05;100707.50;;;18.72;53.04
41596;BME280;27283;52.504;13.358;2023-05-23T07:32:42;100703.84;;;18.53;52.92
41596;BME280;27283;52.504;13.358;2023-05-23T07:35:21;100698.38;;;18.60;51.39
41596;BME280;27283;52.504;13.358;2023-05-23T07:37:59;100689.41;;;19.10;50.04
41596;BME280;27283;52.504;13.358;2023-05-23T07:40:40;100691.94;;;19.48;50.57
41596;BME280;27283;52.504;13.358;2023-05-23T07:43:31;100699.97;;;19.62;48.92
41596;BME280;27283;52.504;13.358;2023-05-23T07:46:08;100703.63;;;19.56;49.55
41596;BME280;27283;52.504;13.358;2023-05-23T07:48:42;100702.03;;;19.04;49.26
41596;BME280;27283;52.504;13.358;2023-05-23T07:51:18;100696.38;;;19.24;50.46
41596;BME280;27283;52.504;13.358;2023-05-23T07:53:57;100698.97;;;18.94;50.10
41596;BME280;27283;52.504;13.358;2023-05-23T07:56:35;100709.41;;;19.22;50.08
41596;BME280;27283;52.504;13.358;2023-05-23T07:59:20;100707.03;;;19.33;50.18
41596;BME280;27283;52.504;13.358;2023-05-23T08:02:30;100712.19;;;19.16;50.66
41596;BME280;27283;52.504;13.358;2023-05-23T08:05:09;100713.16;;;19.46;50.32
41596;BME280;27283;52.504;13.358;2023-05-23T08:07:52;100715.53;;;19.18;51.65
41596;BME280;27283;52.504;13.358;2023-05-23T08:10:37;100714.84;;;19.66;51.25
41596;BME280;27283;52.504;13.358;2023-05-23T08:13:17;100711.56;;;20.43;48.03
41596;BME280;27283;52.504;13.358;2023-05-23T08:15:53;100713.78;;;20.34;48.33
41596;BME280;27283;52.504;13.358;2023-05-23T08:18:48;100717.38;;;20.77;47.50
41596;BME280;27283;52.504;13.358;2023-05-23T08:24:38;100725.81;;;20.45;47.44
41596;BME280;27283;52.504;13.358;2023-05-23T08:27:25;100721.91;;;20.83;47.64
41596;BME280;27283;52.504;13.358;2023-05-23T08:30:10;100712.06;;;21.77;44.88
41596;BME280;27283;52.504;13.358;2023-05-23T08:32:46;100722.34;;;22.10;44.16
41596;BME280;27283;52.504;13.358;2023-05-23T08:35:21;100722.50;;;22.21;44.37
41596;BME280;27283;52.504;13.358;2023-05-23T08:37:56;100725.06;;;22.68;43.81
41596;BME280;27283;52.504;13.358;2023-05-23T08:43:07;100740.09;;;22.65;43.78
41596;BME280;27283;52.504;13.358;2023-05-23T08:45:43;100730.50;;;21.82;45.97
41596;BME280;27283;52.504;13.358;2023-05-23T08:48:26;100739.84;;;22.84;45.01
41596;BME280;27283;52.504;13.358;2023-05-23T08:51:06;100736.50;;;22.48;45.26
41596;BME280;27283;52.504;13.358;2023-05-23T08:53:46;100748.56;;;22.81;46.04
41596;BME280;27283;52.504;13.358;2023-05-23T08:56:22;100746.22;;;21.15;49.32
41596;BME280;27283;52.504;13.358;2023-05-23T08:59:04;100745.25;;;21.45;49.56
41596;BME280;27283;52.504;13.358;2023-05-23T09:01:57;100749.63;;;21.93;48.80
41596;BME280;27283;52.504;13.358;2023-05-23T09:04:34;100748.09;;;21.86;49.18
41596;BME280;27283;52.504;13.358;2023-05-23T09:07:11;100741.19;;;22.81;47.42
41596;BME280;27283;52.504;13.358;2023-05-23T09:09:46;100744.78;;;22.36;48.41
41596;BME280;27283;52.504;13.358;2023-05-23T09:12:24;100760.81;;;21.92;50.64
41596;BME280;27283;52.504;13.358;2023-05-23T09:15:56;100758.44;;;21.13;53.57
41596;BME280;27283;52.504;13.358;2023-05-23T09:18:37;100760.63;;;21.70;51.98
41596;BME280;27283;52.504;13.358;2023-05-23T09:21:13;100755.25;;;21.75;52.67
41596;BME280;27283;52.504;13.358;2023-05-23T09:23:52;100760.56;;;22.46;50.82
41596;BME280;27283;52.504;13.358;2023-05-23T09:26:33;100762.75;;;21.80;52.51
41596;BME280;27283;52.504;13.358;2023-05-23T09:29:20;100763.47;;;21.39;55.76
41596;BME280;27283;52.504;13.358;2023-05-23T09:32:17;100768.34;;;21.61;54.29
41596;BME280;27283;52.504;13.358;2023-05-23T09:35:00;100764.88;;;21.30;56.48
41596;BME280;27283;52.504;13.358;2023-05-23T09:37:37;100753.22;;;21.82;54.83
41596;BME280;27283;52.504;13.358;2023-05-23T09:40:29;100758.34;;;21.79;54.78
41596;BME280;27283;52.504;13.358;2023-05-23T09:43:07;100769.06;;;20.79;56.15
41596;BME280;27283;52.504;13.358;2023-05-23T09:45:40;100761.09;;;20.47;57.76
41596;BME280;27283;52.504;13.358;2023-05-23T09:48:20;100763.53;;;20.36;58.43
41596;BME280;27283;52.504;13.358;2023-05-23T09:51:09;100768.81;;;20.50;58.19
41596;BME280;27283;52.504;13.358;2023-05-23T09:53:46;100778.78;;;20.44;57.99
41596;BME280;27283;52.504;13.358;2023-05-23T09:56:19;100770.97;;;20.78;58.50
41596;BME280;27283;52.504;13.358;2023-05-23T09:58:53;100767.00;;;21.16;57.10
41596;BME280;27283;52.504;13.358;2023-05-23T10:01:31;100771.44;;;21.41;56.49
41596;BME280;27283;52.504;13.358;2023-05-23T10:04:09;100770.38;;;21.66;56.32
41596;BME280;27283;52.504;13.358;2023-05-23T10:06:59;100764.94;;;22.18;55.95
41596;BME280;27283;52.504;13.358;2023-05-23T10:09:55;100777.34;;;22.09;54.91
41596;BME280;27283;52.504;13.358;2023-05-23T10:12:44;100775.38;;;21.69;55.79
41596;BME280;27283;52.504;13.358;2023-05-23T10:15:37;100779.63;;;21.29;58.78
41596;BME280;27283;52.504;13.358;2023-05-23T10:19:09;100783.72;;;20.96;60.56
41596;BME280;27283;52.504;13.358;2023-05-23T10:22:08;100776.69;;;20.58;61.72
41596;BME280;27283;52.504;13.358;2023-05-23T10:24:47;100784.66;;;20.60;62.07
41596;BME280;27283;52.504;13.358;2023-05-23T10:27:27;100783.22;;;20.57;63.35
41596;BME280;27283;52.504;13.358;2023-05-23T10:30:05;100783.00;;;20.59;63.05
41596;BME280;27283;52.504;13.358;2023-05-23T10:33:38;100781.06;;;20.78;63.31
41596;BME280;27283;52.504;13.358;2023-05-23T10:36:16;100772.38;;;21.35;61.81
41596;BME280;27283;52.504;13.358;2023-05-23T10:39:03;100781.31;;;20.76;64.27
41596;BME280;27283;52.504;13.358;2023-05-23T10:41:42;100781.06;;;20.59;66.36
41596;BME280;27283;52.504;13.358;2023-05-23T10:44:25;100786.31;;;20.30;68.99
41596;BME280;27283;52.504;13.358;2023-05-23T10:47:06;100787.63;;;20.28;70.83
41596;BME280;27283;52.504;13.358;2023-05-23T10:49:46;100795.75;;;21.07;69.11
41596;BME280;27283;52.504;13.358;2023-05-23T10:52:26;100794.69;;;21.08;67.35
41596;BME280;27283;52.504;13.358;2023-05-23T10:55:12;100797.44;;;21.08;69.29
41596;BME280;27283;52.504;13.358;2023-05-23T10:58:08;100788.06;;;21.28;67.64
41596;BME280;27283;52.504;13.358;2023-05-23T11:00:51;100798.88;;;20.80;70.02
41596;BME280;27283;52.504;13.358;2023-05-23T11:03:31;100809.78;;;20.50;70.69
41596;BME280;27283;52.504;13.358;2023-05-23T11:06:29;100793.94;;;19.66;74.74
41596;BME280;27283;52.504;13.358;2023-05-23T11:09:11;100796.13;;;19.57;74.88
41596;BME280;27283;52.504;13.358;2023-05-23T11:12:03;100793.84;;;19.98;72.98
41596;BME280;27283;52.504;13.358;2023-05-23T11:14:53;100810.31;;;19.66;74.49
41596;BME280;27283;52.504;13.358;2023-05-23T11:17:30;100799.84;;;19.63;75.07
41596;BME280;27283;52.504;13.358;2023-05-23T11:20:08;100802.09;;;20.10;72.08
41596;BME280;27283;52.504;13.358;2023-05-23T11:22:53;100805.75;;;19.60;74.65
41596;BME280;27283;52.504;13.358;2023-05-23T11:25:44;100814.34;;;19.06;75.36
41596;BME280;27283;52.504;13.358;2023-05-23T11:28:27;100817.59;;;18.97;80.13
41596;BME280;27283;52.504;13.358;2023-05-23T11:31:07;100811.41;;;19.08;82.46
41596;BME280;27283;52.504;13.358;2023-05-23T11:33:45;100815.91;;;18.95;81.79
41596;BME280;27283;52.504;13.358;2023-05-23T11:36:34;100810.97;;;18.34;82.47
41596;BME280;27283;52.504;13.358;2023-05-23T11:39:21;100816.63;;;18.39;82.80
41596;BME280;27283;52.504;13.358;2023-05-23T11:41:59;100815.00;;;18.24;82.18
41596;BME280;27283;52.504;13.358;2023-05-23T11:44:39;100811.88;;;18.21;83.44
41596;BME280;27283;52.504;13.358;2023-05-23T11:47:15;100811.25;;;18.64;82.24
41596;BME280;27283;52.504;13.358;2023-05-23T11:49:55;100824.13;;;18.82;80.33
41596;BME280;27283;52.504;13.358;2023-05-23T11:52:37;100822.34;;;18.69;79.12
41596;BME280;27283;52.504;13.358;2023-05-23T11:55:13;100824.41;;;18.67;79.04
41596;BME280;27283;52.504;13.358;2023-05-23T11:57:47;100829.44;;;18.70;78.72
41596;BME280;27283;52.504;13.358;2023-05-23T12:00:30;100822.84;;;18.53;79.09
41596;BME280;27283;52.504;13.358;2023-05-23T12:03:06;100830.22;;;18.84;78.13
41596;BME280;27283;52.504;13.358;2023-05-23T12:05:45;100826.16;;;19.00;77.00
41596;BME280;27283;52.504;13.358;2023-05-23T12:08:24;100832.63;;;18.99;77.10
41596;BME280;27283;52.504;13.358;2023-05-23T12:11:00;100823.16;;;19.08;77.20
41596;BME280;27283;52.504;13.358;2023-05-23T12:13:33;100833.09;;;19.28;75.80
41596;BME280;27283;52.504;13.358;2023-05-23T12:16:13;100827.97;;;19.06;74.46
41596;BME280;27283;52.504;13.358;2023-05-23T12:18:49;100829.38;;;18.38;77.13
41596;BME280;27283;52.504;13.358;2023-05-23T12:21:46;100829.50;;;18.12;79.18
41596;BME280;27283;52.504;13.358;2023-05-23T12:24:22;100834.00;;;18.31;78.86
41596;BME280;27283;52.504;13.358;2023-05-23T12:27:17;100831.34;;;18.11;79.64
41596;BME280;27283;52.504;13.358;2023-05-23T12:30:03;100840.72;;;18.29;79.53
41596;BME280;27283;52.504;13.358;2023-05-23T12:33:08;100844.63;;;18.46;78.33
41596;BME280;27283;52.504;13.358;2023-05-23T12:36:28;100846.84;;;18.69;77.39
41596;BME280;27283;52.504;13.358;2023-05-23T12:39:30;100853.47;;;18.35;78.50
41596;BME280;27283;52.504;13.358;2023-05-23T12:42:29;100845.38;;;18.67;76.45
41596;BME280;27283;52.504;13.358;2023-05-23T12:45:32;100844.28;;;18.81;76.62
41596;BME280;27283;52.504;13.358;2023-05-23T12:48:40;100842.72;;;18.53;77.10
41596;BME280;27283;52.504;13.358;2023-05-23T12:51:12;100838.25;;;18.72;76.61
41596;BME280;27283;52.504;13.358;2023-05-23T12:53:45;100849.97;;;18.73;76.00
41596;BME280;27283;52.504;13.358;2023-05-23T12:56:32;100850.31;;;18.90;75.46
41596;BME280;27283;52.504;13.358;2023-05-23T12:59:13;100852.34;;;19.01;73.72
41596;BME280;27283;52.504;13.358;2023-05-23T13:01:46;100859.88;;;18.99;74.47
41596;BME280;27283;52.504;13.358;2023-05-23T13:04:22;100852.03;;;18.77;74.65
41596;BME280;27283;52.504;13.358;2023-05-23T13:06:57;100858.84;;;18.55;75.80
41596;BME280;27283;52.504;13.358;2023-05-23T13:09:38;100861.78;;;18.53;76.44
41596;BME280;27283;52.504;13.358;2023-05-23T13:12:23;100869.59;;;18.30;78.21
41596;BME280;27283;52.504;13.358;2023-05-23T13:15:04;100861.53;;;17.96;80.02
41596;BME280;27283;52.504;13.358;2023-05-23T13:21:57;100863.03;;;17.92;81.18
41596;BME280;27283;52.504;13.358;2023-05-23T13:24:33;100859.44;;;17.98;81.19
41596;BME280;27283;52.504;13.358;2023-05-23T13:27:06;100862.78;;;17.80;82.07
41596;BME280;27283;52.504;13.358;2023-05-23T13:29:41;100877.44;;;17.46;84.49
41596;BME280;27283;52.504;13.358;2023-05-23T13:32:14;100875.97;;;17.57;84.16
41596;BME280;27283;52.504;13.358;2023-05-23T13:34:47;100880.56;;;17.43;85.13
41596;BME280;27283;52.504;13.358;2023-05-23T13:37:23;100883.72;;;17.53;84.99
41596;BME280;27283;52.504;13.358;2023-05-23T13:40:00;100886.63;;;17.58;84.73
41596;BME280;27283;52.504;13.358;2023-05-23T13:42:33;100881.59;;;17.62;85.29
41596;BME280;27283;52.504;13.358;2023-05-23T13:45:06;100891.03;;;17.46;85.97
41596;BME280;27283;52.504;13.358;2023-05-23T13:47:39;100894.16;;;17.49;85.14
41596;BME280;27283;52.504;13.358;2023-05-23T13:50:12;100897.09;;;17.54;84.90
41596;BME280;27283;52.504;13.358;2023-05-23T13:52:49;100900.63;;;17.62;84.34
41596;BME280;27283;52.504;13.358;2023-05-23T13:55:23;100892.75;;;16.85;87.07
41596;BME280;27283;52.504;13.358;2023-05-23T13:57:58;100899.00;;;16.79;87.98
41596;BME280;27283;52.504;13.358;2023-05-23T14:00:30;100903.03;;;16.90;87.94
41596;BME280;27283;52.504;13.358;2023-05-23T14:03:02;100899.22;;;16.77;88.32
41596;BME280;27283;52.504;13.358;2023-05-23T14:05:35;100894.25;;;16.88;88.00